sensor_id;sensor_type;location;lat;lon;timestamp;P1;durP1;ratioP1;P2;durP2;ratioP2
43345;SDS011;28937;51.160;4.146;2022-09-09T00:03:53;6.13;;;1.40;;
43345;SDS011;28937;51.160;4.146;2022-09-09T00:09:25;4.25;;;1.50;;
43345;SDS011;28937;51.160;4.146;2022-09-09T00:14:47;3.63;;;1.27;;
43345;SDS011;28937;51.160;4.146;2022-09-09T00:22:25;4.88;;;1.65;;
43345;SDS011;28937;51.160;4.146;2022-09-09T00:24:55;4.53;;;1.55;;
43345;SDS011;28937;51.160;4.146;2022-09-09T00:27:40;4.10;;;1.73;;
43345;SDS011;28937;51.160;4.146;2022-09-09T00:32:59;5.30;;;1.55;;
43345;SDS011;28937;51.160;4.146;2022-09-09T00:35:34;5.95;;;1.55;;
43345;SDS011;28937;51.160;4.146;2022-09-09T00:38:08;3.97;;;1.17;;
43345;SDS011;28937;51.160;4.146;2022-09-09T00:40:41;3.92;;;1.02;;
43345;SDS011;28937;51.160;4.146;2022-09-09T00:43:23;1.77;;;0.80;;
43345;SDS011;28937;51.160;4.146;2022-09-09T00:54:22;6.07;;;0.88;;
43345;SDS011;28937;51.160;4.146;2022-09-09T00:57:06;4.35;;;1.00;;
43345;SDS011;28937;51.160;4.146;2022-09-09T00:59:52;3.40;;;1.02;;
43345;SDS011;28937;51.160;4.146;2022-09-09T01:05:40;3.83;;;1.00;;
43345;SDS011;28937;51.160;4.146;2022-09-09T01:10:48;5.73;;;1.17;;
43345;SDS011;28937;51.160;4.146;2022-09-09T01:13:28;4.13;;;1.17;;
43345;SDS011;28937;51.160;4.146;2022-09-09T01:15:57;5.25;;;1.13;;
43345;SDS011;28937;51.160;4.146;2022-09-09T01:18:32;5.28;;;1.00;;
43345;SDS011;28937;51.160;4.146;2022-09-09T01:21:04;4.63;;;1.40;;
43345;SDS011;28937;51.160;4.146;2022-09-09T01:24:04;7.13;;;1.40;;
43345;SDS011;28937;51.160;4.146;2022-09-09T01:27:00;2.63;;;0.90;;
43345;SDS011;28937;51.160;4.146;2022-09-09T01:29:30;4.35;;;0.90;;
43345;SDS011;28937;51.160;4.146;2022-09-09T01:31:59;6.25;;;1.17;;
43345;SDS011;28937;51.160;4.146;2022-09-09T01:34:33;3.10;;;0.73;;
43345;SDS011;28937;51.160;4.146;2022-09-09T01:37:03;4.82;;;0.80;;
43345;SDS011;28937;51.160;4.146;2022-09-09T01:39:32;6.10;;;1.10;;
43345;SDS011;28937;51.160;4.146;2022-09-09T01:41:59;6.20;;;0.82;;
43345;SDS011;28937;51.160;4.146;2022-09-09T01:44:26;3.50;;;1.13;;
43345;SDS011;28937;51.160;4.146;2022-09-09T01:46:53;4.13;;;0.90;;
43345;SDS011;28937;51.160;4.146;2022-09-09T01:49:19;4.63;;;1.10;;
43345;SDS011;28937;51.160;4.146;2022-09-09T01:51:44;5.20;;;0.88;;
43345;SDS011;28937;51.160;4.146;2022-09-09T01:54:14;6.32;;;0.68;;
43345;SDS011;28937;51.160;4.146;2022-09-09T01:56:45;7.45;;;1.13;;
43345;SDS011;28937;51.160;4.146;2022-09-09T02:07:03;4.20;;;0.93;;
43345;SDS011;28937;51.160;4.146;2022-09-09T02:09:39;3.58;;;0.85;;
43345;SDS011;28937;51.160;4.146;2022-09-09T02:12:11;6.60;;;1.15;;
43345;SDS011;28937;51.160;4.146;2022-09-09T02:14:44;2.72;;;1.20;;
43345;SDS011;28937;51.160;4.146;2022-09-09T02:17:14;4.45;;;1.00;;
43345;SDS011;28937;51.160;4.146;2022-09-09T02:19:54;4.32;;;0.90;;
43345;SDS011;28937;51.160;4.146;2022-09-09T02:22:27;5.53;;;1.13;;
43345;SDS011;28937;51.160;4.146;2022-09-09T02:24:54;6.18;;;1.50;;
43345;SDS011;28937;51.160;4.146;2022-09-09T02:27:24;5.00;;;1.15;;
43345;SDS011;28937;51.160;4.146;2022-09-09T02:29:50;5.97;;;1.20;;
43345;SDS011;28937;51.160;4.146;2022-09-09T02:32:19;3.78;;;1.38;;
43345;SDS011;28937;51.160;4.146;2022-09-09T02:34:48;4.25;;;1.20;;
43345;SDS011;28937;51.160;4.146;2022-09-09T02:37:19;8.05;;;1.95;;
43345;SDS011;28937;51.160;4.146;2022-09-09T02:39:49;4.53;;;1.50;;
43345;SDS011;28937;51.160;4.146;2022-09-09T02:42:15;6.35;;;1.60;;
43345;SDS011;28937;51.160;4.146;2022-09-09T02:44:41;4.55;;;1.90;;
43345;SDS011;28937;51.160;4.146;2022-09-09T02:47:10;4.68;;;1.77;;
43345;SDS011;28937;51.160;4.146;2022-09-09T02:55:33;5.07;;;1.65;;
43345;SDS011;28937;51.160;4.146;2022-09-09T02:58:06;5.97;;;1.50;;
43345;SDS011;28937;51.160;4.146;2022-09-09T03:00:35;6.90;;;1.58;;
43345;SDS011;28937;51.160;4.146;2022-09-09T03:03:01;4.47;;;1.73;;
43345;SDS011;28937;51.160;4.146;2022-09-09T03:05:31;7.25;;;1.85;;
43345;SDS011;28937;51.160;4.146;2022-09-09T03:07:57;4.68;;;1.60;;
43345;SDS011;28937;51.160;4.146;2022-09-09T03:10:23;7.30;;;1.88;;
43345;SDS011;28937;51.160;4.146;2022-09-09T03:12:48;3.70;;;1.48;;
43345;SDS011;28937;51.160;4.146;2022-09-09T03:15:15;6.60;;;2.00;;
43345;SDS011;28937;51.160;4.146;2022-09-09T03:17:41;4.05;;;1.08;;
43345;SDS011;28937;51.160;4.146;2022-09-09T03:20:07;7.32;;;1.90;;
43345;SDS011;28937;51.160;4.146;2022-09-09T03:22:33;5.57;;;1.58;;
43345;SDS011;28937;51.160;4.146;2022-09-09T03:24:59;8.80;;;1.80;;
43345;SDS011;28937;51.160;4.146;2022-09-09T03:27:25;9.48;;;1.65;;
43345;SDS011;28937;51.160;4.146;2022-09-09T03:29:50;5.80;;;1.45;;
43345;SDS011;28937;51.160;4.146;2022-09-09T03:32:17;6.60;;;1.45;;
43345;SDS011;28937;51.160;4.146;2022-09-09T03:34:43;5.15;;;1.30;;
43345;SDS011;28937;51.160;4.146;2022-09-09T03:37:08;7.95;;;1.73;;
43345;SDS011;28937;51.160;4.146;2022-09-09T03:39:34;6.00;;;1.58;;
43345;SDS011;28937;51.160;4.146;2022-09-09T03:42:00;8.45;;;1.48;;
43345;SDS011;28937;51.160;4.146;2022-09-09T03:44:28;6.22;;;1.92;;
43345;SDS011;28937;51.160;4.146;2022-09-09T03:46:55;5.95;;;1.63;;
43345;SDS011;28937;51.160;4.146;2022-09-09T03:49:21;5.65;;;1.48;;
43345;SDS011;28937;51.160;4.146;2022-09-09T03:51:47;5.65;;;1.67;;
43345;SDS011;28937;51.160;4.146;2022-09-09T03:54:13;11.48;;;2.35;;
43345;SDS011;28937;51.160;4.146;2022-09-09T03:56:39;5.53;;;1.45;;
43345;SDS011;28937;51.160;4.146;2022-09-09T03:59:06;5.72;;;1.38;;
43345;SDS011;28937;51.160;4.146;2022-09-09T04:01:34;7.70;;;1.80;;
43345;SDS011;28937;51.160;4.146;2022-09-09T04:03:59;7.13;;;1.98;;
43345;SDS011;28937;51.160;4.146;2022-09-09T04:06:27;7.60;;;2.05;;
43345;SDS011;28937;51.160;4.146;2022-09-09T04:08:53;8.45;;;1.95;;
43345;SDS011;28937;51.160;4.146;2022-09-09T04:11:18;11.43;;;2.05;;
43345;SDS011;28937;51.160;4.146;2022-09-09T04:13:44;10.00;;;2.10;;
43345;SDS011;28937;51.160;4.146;2022-09-09T04:16:10;10.63;;;1.50;;
43345;SDS011;28937;51.160;4.146;2022-09-09T04:18:40;8.10;;;1.92;;
43345;SDS011;28937;51.160;4.146;2022-09-09T04:21:06;6.93;;;1.67;;
43345;SDS011;28937;51.160;4.146;2022-09-09T04:23:33;7.05;;;1.45;;
43345;SDS011;28937;51.160;4.146;2022-09-09T04:26:00;8.35;;;1.52;;
43345;SDS011;28937;51.160;4.146;2022-09-09T04:28:27;8.23;;;1.83;;
43345;SDS011;28937;51.160;4.146;2022-09-09T04:30:54;5.95;;;1.40;;
43345;SDS011;28937;51.160;4.146;2022-09-09T04:33:23;7.57;;;1.70;;
43345;SDS011;28937;51.160;4.146;2022-09-09T04:35:51;6.90;;;1.50;;
43345;SDS011;28937;51.160;4.146;2022-09-09T04:38:19;7.05;;;1.55;;
43345;SDS011;28937;51.160;4.146;2022-09-09T04:40:48;8.88;;;1.60;;
43345;SDS011;28937;51.160;4.146;2022-09-09T04:43:16;8.55;;;1.98;;
43345;SDS011;28937;51.160;4.146;2022-09-09T04:45:42;8.70;;;1.70;;
43345;SDS011;28937;51.160;4.146;2022-09-09T04:48:08;8.07;;;1.90;;
43345;SDS011;28937;51.160;4.146;2022-09-09T04:50:34;9.23;;;1.90;;
43345;SDS011;28937;51.160;4.146;2022-09-09T04:53:04;8.52;;;1.60;;
43345;SDS011;28937;51.160;4.146;2022-09-09T04:55:30;8.02;;;1.80;;
43345;SDS011;28937;51.160;4.146;2022-09-09T04:57:56;8.45;;;1.80;;
43345;SDS011;28937;51.160;4.146;2022-09-09T05:00:22;5.18;;;1.45;;
43345;SDS011;28937;51.160;4.146;2022-09-09T05:02:48;9.30;;;2.17;;
43345;SDS011;28937;51.160;4.146;2022-09-09T05:05:14;6.47;;;1.48;;
43345;SDS011;28937;51.160;4.146;2022-09-09T05:07:39;8.43;;;1.92;;
43345;SDS011;28937;51.160;4.146;2022-09-09T05:10:05;10.45;;;2.35;;
43345;SDS011;28937;51.160;4.146;2022-09-09T05:12:31;9.05;;;1.90;;
43345;SDS011;28937;51.160;4.146;2022-09-09T05:14:57;7.93;;;2.10;;
43345;SDS011;28937;51.160;4.146;2022-09-09T05:17:23;9.23;;;1.98;;
43345;SDS011;28937;51.160;4.146;2022-09-09T05:19:48;9.02;;;2.00;;
43345;SDS011;28937;51.160;4.146;2022-09-09T05:22:18;7.95;;;1.52;;
43345;SDS011;28937;51.160;4.146;2022-09-09T05:24:45;6.30;;;1.55;;
43345;SDS011;28937;51.160;4.146;2022-09-09T05:27:11;7.82;;;1.48;;
43345;SDS011;28937;51.160;4.146;2022-09-09T05:29:37;5.88;;;1.50;;
43345;SDS011;28937;51.160;4.146;2022-09-09T05:32:03;6.25;;;2.10;;
43345;SDS011;28937;51.160;4.146;2022-09-09T05:34:29;9.52;;;1.80;;
43345;SDS011;28937;51.160;4.146;2022-09-09T05:36:55;6.82;;;1.45;;
43345;SDS011;28937;51.160;4.146;2022-09-09T05:39:20;4.85;;;1.33;;
43345;SDS011;28937;51.160;4.146;2022-09-09T05:41:46;8.07;;;1.52;;
43345;SDS011;28937;51.160;4.146;2022-09-09T05:44:12;4.32;;;1.00;;
43345;SDS011;28937;51.160;4.146;2022-09-09T05:46:38;5.53;;;1.30;;
43345;SDS011;28937;51.160;4.146;2022-09-09T05:49:04;6.10;;;1.15;;
43345;SDS011;28937;51.160;4.146;2022-09-09T05:51:30;3.92;;;1.15;;
43345;SDS011;28937;51.160;4.146;2022-09-09T05:53:56;8.27;;;1.77;;
43345;SDS011;28937;51.160;4.146;2022-09-09T05:56:25;17.77;;;2.60;;
43345;SDS011;28937;51.160;4.146;2022-09-09T05:58:53;5.57;;;1.58;;
43345;SDS011;28937;51.160;4.146;2022-09-09T06:01:23;6.75;;;1.50;;
43345;SDS011;28937;51.160;4.146;2022-09-09T06:03:51;14.57;;;2.15;;
43345;SDS011;28937;51.160;4.146;2022-09-09T06:06:22;7.38;;;1.60;;
43345;SDS011;28937;51.160;4.146;2022-09-09T06:08:51;8.45;;;1.85;;
43345;SDS011;28937;51.160;4.146;2022-09-09T06:11:19;9.05;;;1.60;;
43345;SDS011;28937;51.160;4.146;2022-09-09T06:13:49;10.15;;;1.88;;
43345;SDS011;28937;51.160;4.146;2022-09-09T06:16:19;9.23;;;1.80;;
43345;SDS011;28937;51.160;4.146;2022-09-09T06:18:48;8.05;;;1.55;;
43345;SDS011;28937;51.160;4.146;2022-09-09T06:21:16;8.43;;;1.27;;
43345;SDS011;28937;51.160;4.146;2022-09-09T06:23:43;9.50;;;1.88;;
43345;SDS011;28937;51.160;4.146;2022-09-09T06:26:10;7.80;;;1.80;;
43345;SDS011;28937;51.160;4.146;2022-09-09T06:28:38;8.27;;;1.60;;
43345;SDS011;28937;51.160;4.146;2022-09-09T06:31:04;10.88;;;1.67;;
43345;SDS011;28937;51.160;4.146;2022-09-09T06:33:36;10.07;;;1.60;;
43345;SDS011;28937;51.160;4.146;2022-09-09T06:36:06;7.35;;;1.20;;
43345;SDS011;28937;51.160;4.146;2022-09-09T06:38:36;6.78;;;1.27;;
43345;SDS011;28937;51.160;4.146;2022-09-09T06:41:02;10.18;;;2.13;;
43345;SDS011;28937;51.160;4.146;2022-09-09T06:43:28;5.70;;;1.45;;
43345;SDS011;28937;51.160;4.146;2022-09-09T06:45:58;10.27;;;1.73;;
43345;SDS011;28937;51.160;4.146;2022-09-09T06:48:25;5.50;;;1.60;;
43345;SDS011;28937;51.160;4.146;2022-09-09T06:53:38;7.05;;;1.80;;
43345;SDS011;28937;51.160;4.146;2022-09-09T06:58:39;8.80;;;2.13;;
43345;SDS011;28937;51.160;4.146;2022-09-09T07:01:12;6.72;;;1.48;;
43345;SDS011;28937;51.160;4.146;2022-09-09T07:03:40;8.77;;;1.73;;
43345;SDS011;28937;51.160;4.146;2022-09-09T07:06:08;8.70;;;1.83;;
43345;SDS011;28937;51.160;4.146;2022-09-09T07:11:05;9.88;;;1.90;;
43345;SDS011;28937;51.160;4.146;2022-09-09T07:13:32;7.85;;;1.73;;
43345;SDS011;28937;51.160;4.146;2022-09-09T07:16:31;8.32;;;1.73;;
43345;SDS011;28937;51.160;4.146;2022-09-09T07:18:51;8.57;;;1.38;;
43345;SDS011;28937;51.160;4.146;2022-09-09T07:21:17;10.20;;;1.80;;
43345;SDS011;28937;51.160;4.146;2022-09-09T07:23:44;5.70;;;1.52;;
43345;SDS011;28937;51.160;4.146;2022-09-09T07:26:10;7.32;;;1.85;;
43345;SDS011;28937;51.160;4.146;2022-09-09T07:28:41;7.68;;;1.20;;
43345;SDS011;28937;51.160;4.146;2022-09-09T07:31:08;5.22;;;1.27;;
43345;SDS011;28937;51.160;4.146;2022-09-09T07:33:41;7.13;;;1.35;;
43345;SDS011;28937;51.160;4.146;2022-09-09T07:38:43;5.25;;;1.50;;
43345;SDS011;28937;51.160;4.146;2022-09-09T07:41:14;5.88;;;1.55;;
43345;SDS011;28937;51.160;4.146;2022-09-09T07:43:45;7.35;;;1.52;;
43345;SDS011;28937;51.160;4.146;2022-09-09T07:46:13;5.80;;;1.45;;
43345;SDS011;28937;51.160;4.146;2022-09-09T07:48:47;5.55;;;1.45;;
43345;SDS011;28937;51.160;4.146;2022-09-09T07:51:19;6.10;;;1.35;;
43345;SDS011;28937;51.160;4.146;2022-09-09T07:53:47;4.85;;;1.23;;
43345;SDS011;28937;51.160;4.146;2022-09-09T07:56:17;7.78;;;1.58;;
43345;SDS011;28937;51.160;4.146;2022-09-09T07:58:46;6.32;;;1.90;;
43345;SDS011;28937;51.160;4.146;2022-09-09T08:01:17;11.77;;;1.92;;
43345;SDS011;28937;51.160;4.146;2022-09-09T08:03:51;4.50;;;1.13;;
43345;SDS011;28937;51.160;4.146;2022-09-09T08:06:24;7.50;;;1.48;;
43345;SDS011;28937;51.160;4.146;2022-09-09T08:08:52;8.45;;;2.00;;
43345;SDS011;28937;51.160;4.146;2022-09-09T08:11:19;7.45;;;1.40;;
43345;SDS011;28937;51.160;4.146;2022-09-09T08:13:48;6.25;;;1.25;;
43345;SDS011;28937;51.160;4.146;2022-09-09T08:16:16;5.85;;;1.38;;
43345;SDS011;28937;51.160;4.146;2022-09-09T08:18:52;5.22;;;1.38;;
43345;SDS011;28937;51.160;4.146;2022-09-09T08:21:20;5.40;;;1.30;;
43345;SDS011;28937;51.160;4.146;2022-09-09T08:23:50;5.38;;;1.60;;
43345;SDS011;28937;51.160;4.146;2022-09-09T08:26:24;7.28;;;1.48;;
43345;SDS011;28937;51.160;4.146;2022-09-09T08:28:53;6.43;;;1.77;;
43345;SDS011;28937;51.160;4.146;2022-09-09T08:31:25;6.85;;;1.27;;
43345;SDS011;28937;51.160;4.146;2022-09-09T08:33:57;5.05;;;1.52;;
43345;SDS011;28937;51.160;4.146;2022-09-09T08:36:30;6.53;;;1.50;;
43345;SDS011;28937;51.160;4.146;2022-09-09T08:38:58;4.28;;;1.13;;
43345;SDS011;28937;51.160;4.146;2022-09-09T08:47:39;5.07;;;1.25;;
43345;SDS011;28937;51.160;4.146;2022-09-09T08:50:25;4.55;;;0.95;;
43345;SDS011;28937;51.160;4.146;2022-09-09T08:56:01;4.20;;;1.08;;
43345;SDS011;28937;51.160;4.146;2022-09-09T08:58:33;4.70;;;1.40;;
43345;SDS011;28937;51.160;4.146;2022-09-09T09:04:11;5.70;;;1.38;;
43345;SDS011;28937;51.160;4.146;2022-09-09T09:12:18;4.45;;;1.15;;
43345;SDS011;28937;51.160;4.146;2022-09-09T09:14:47;4.38;;;1.08;;
43345;SDS011;28937;51.160;4.146;2022-09-09T09:17:20;4.85;;;1.17;;
43345;SDS011;28937;51.160;4.146;2022-09-09T09:19:48;4.68;;;1.10;;
43345;SDS011;28937;51.160;4.146;2022-09-09T09:22:21;5.38;;;1.13;;
43345;SDS011;28937;51.160;4.146;2022-09-09T09:27:37;3.63;;;0.98;;
43345;SDS011;28937;51.160;4.146;2022-09-09T09:32:40;5.85;;;1.08;;
43345;SDS011;28937;51.160;4.146;2022-09-09T09:35:14;5.63;;;1.05;;
43345;SDS011;28937;51.160;4.146;2022-09-09T09:37:40;5.75;;;1.33;;
43345;SDS011;28937;51.160;4.146;2022-09-09T09:40:16;5.57;;;1.05;;
43345;SDS011;28937;51.160;4.146;2022-09-09T09:42:59;3.63;;;1.13;;
43345;SDS011;28937;51.160;4.146;2022-09-09T09:45:32;4.47;;;1.33;;
43345;SDS011;28937;51.160;4.146;2022-09-09T09:48:09;4.38;;;1.15;;
43345;SDS011;28937;51.160;4.146;2022-09-09T09:50:39;4.97;;;1.10;;
43345;SDS011;28937;51.160;4.146;2022-09-09T09:53:35;2.97;;;1.10;;
43345;SDS011;28937;51.160;4.146;2022-09-09T09:56:07;4.78;;;0.95;;
43345;SDS011;28937;51.160;4.146;2022-09-09T10:01:22;4.18;;;1.17;;
43345;SDS011;28937;51.160;4.146;2022-09-09T10:03:50;5.10;;;1.05;;
43345;SDS011;28937;51.160;4.146;2022-09-09T10:06:17;4.97;;;1.30;;
43345;SDS011;28937;51.160;4.146;2022-09-09T10:09:03;3.50;;;1.00;;
43345;SDS011;28937;51.160;4.146;2022-09-09T10:14:15;2.60;;;0.70;;
43345;SDS011;28937;51.160;4.146;2022-09-09T10:17:14;3.75;;;1.10;;
43345;SDS011;28937;51.160;4.146;2022-09-09T10:22:50;2.40;;;0.98;;
43345;SDS011;28937;51.160;4.146;2022-09-09T10:33:58;5.05;;;1.10;;
43345;SDS011;28937;51.160;4.146;2022-09-09T10:36:46;6.85;;;1.25;;
43345;SDS011;28937;51.160;4.146;2022-09-09T10:42:07;6.75;;;1.58;;
43345;SDS011;28937;51.160;4.146;2022-09-09T10:44:56;6.72;;;0.80;;
43345;SDS011;28937;51.160;4.146;2022-09-09T10:55:50;3.47;;;0.90;;
43345;SDS011;28937;51.160;4.146;2022-09-09T10:58:23;3.05;;;0.80;;
43345;SDS011;28937;51.160;4.146;2022-09-09T11:00:58;4.32;;;0.88;;
43345;SDS011;28937;51.160;4.146;2022-09-09T11:03:28;4.25;;;0.90;;
43345;SDS011;28937;51.160;4.146;2022-09-09T11:05:59;3.28;;;0.98;;
43345;SDS011;28937;51.160;4.146;2022-09-09T11:08:29;1.73;;;0.63;;
43345;SDS011;28937;51.160;4.146;2022-09-09T11:11:00;3.00;;;0.75;;
43345;SDS011;28937;51.160;4.146;2022-09-09T11:16:42;2.90;;;0.50;;
43345;SDS011;28937;51.160;4.146;2022-09-09T11:19:26;2.20;;;0.57;;
43345;SDS011;28937;51.160;4.146;2022-09-09T11:22:12;3.53;;;0.45;;
43345;SDS011;28937;51.160;4.146;2022-09-09T11:25:20;3.47;;;0.57;;
43345;SDS011;28937;51.160;4.146;2022-09-09T11:38:52;5.97;;;0.82;;
43345;SDS011;28937;51.160;4.146;2022-09-09T11:41:23;4.43;;;0.90;;
43345;SDS011;28937;51.160;4.146;2022-09-09T11:43:59;5.80;;;1.00;;
43345;SDS011;28937;51.160;4.146;2022-09-09T11:46:36;3.97;;;1.00;;
43345;SDS011;28937;51.160;4.146;2022-09-09T11:49:04;4.60;;;1.20;;
43345;SDS011;28937;51.160;4.146;2022-09-09T11:51:32;6.10;;;0.98;;
43345;SDS011;28937;51.160;4.146;2022-09-09T11:54:02;6.78;;;1.05;;
43345;SDS011;28937;51.160;4.146;2022-09-09T11:56:55;3.95;;;0.82;;
43345;SDS011;28937;51.160;4.146;2022-09-09T11:59:28;6.03;;;0.90;;
43345;SDS011;28937;51.160;4.146;2022-09-09T12:04:30;5.32;;;0.88;;
43345;SDS011;28937;51.160;4.146;2022-09-09T12:07:25;4.38;;;0.90;;
43345;SDS011;28937;51.160;4.146;2022-09-09T12:10:18;3.80;;;0.68;;
43345;SDS011;28937;51.160;4.146;2022-09-09T12:12:48;4.55;;;0.45;;
43345;SDS011;28937;51.160;4.146;2022-09-09T12:15:18;6.75;;;1.10;;
43345;SDS011;28937;51.160;4.146;2022-09-09T12:17:50;6.78;;;1.30;;
43345;SDS011;28937;51.160;4.146;2022-09-09T12:20:41;6.18;;;1.00;;
43345;SDS011;28937;51.160;4.146;2022-09-09T12:23:22;3.70;;;0.93;;
43345;SDS011;28937;51.160;4.146;2022-09-09T12:26:05;3.47;;;0.68;;
43345;SDS011;28937;51.160;4.146;2022-09-09T12:28:39;6.28;;;0.65;;
43345;SDS011;28937;51.160;4.146;2022-09-09T12:31:15;4.10;;;0.73;;
43345;SDS011;28937;51.160;4.146;2022-09-09T12:33:51;4.35;;;0.70;;
43345;SDS011;28937;51.160;4.146;2022-09-09T12:36:38;3.15;;;0.55;;
43345;SDS011;28937;51.160;4.146;2022-09-09T12:39:18;5.00;;;0.70;;
43345;SDS011;28937;51.160;4.146;2022-09-09T12:41:54;4.40;;;0.52;;
43345;SDS011;28937;51.160;4.146;2022-09-09T12:44:23;2.67;;;0.47;;
43345;SDS011;28937;51.160;4.146;2022-09-09T12:46:50;4.43;;;0.70;;
43345;SDS011;28937;51.160;4.146;2022-09-09T12:49:28;2.60;;;0.88;;
43345;SDS011;28937;51.160;4.146;2022-09-09T12:52:04;4.40;;;0.88;;
43345;SDS011;28937;51.160;4.146;2022-09-09T12:54:34;2.72;;;0.50;;
43345;SDS011;28937;51.160;4.146;2022-09-09T12:57:01;5.43;;;0.70;;
43345;SDS011;28937;51.160;4.146;2022-09-09T12:59:35;2.20;;;0.55;;
43345;SDS011;28937;51.160;4.146;2022-09-09T13:02:02;3.50;;;0.63;;
43345;SDS011;28937;51.160;4.146;2022-09-09T13:04:36;2.72;;;0.40;;
43345;SDS011;28937;51.160;4.146;2022-09-09T13:07:05;1.42;;;0.40;;
43345;SDS011;28937;51.160;4.146;2022-09-09T13:09:36;4.15;;;0.80;;
43345;SDS011;28937;51.160;4.146;2022-09-09T13:12:02;3.78;;;0.77;;
43345;SDS011;28937;51.160;4.146;2022-09-09T13:14:34;3.35;;;0.75;;
43345;SDS011;28937;51.160;4.146;2022-09-09T13:17:03;3.63;;;0.80;;
43345;SDS011;28937;51.160;4.146;2022-09-09T13:19:32;4.53;;;0.40;;
43345;SDS011;28937;51.160;4.146;2022-09-09T13:22:11;3.53;;;0.50;;
43345;SDS011;28937;51.160;4.146;2022-09-09T13:24:45;3.50;;;0.65;;
43345;SDS011;28937;51.160;4.146;2022-09-09T13:36:26;4.38;;;1.05;;
43345;SDS011;28937;51.160;4.146;2022-09-09T13:38:35;2.65;;;0.65;;
43345;SDS011;28937;51.160;4.146;2022-09-09T13:41:19;4.97;;;0.95;;
43345;SDS011;28937;51.160;4.146;2022-09-09T13:43:48;4.95;;;1.10;;
43345;SDS011;28937;51.160;4.146;2022-09-09T13:46:23;6.53;;;1.17;;
43345;SDS011;28937;51.160;4.146;2022-09-09T13:54:05;6.87;;;1.33;;
43345;SDS011;28937;51.160;4.146;2022-09-09T13:56:34;6.32;;;1.08;;
43345;SDS011;28937;51.160;4.146;2022-09-09T13:59:00;6.80;;;1.67;;
43345;SDS011;28937;51.160;4.146;2022-09-09T14:01:27;4.85;;;1.35;;
43345;SDS011;28937;51.160;4.146;2022-09-09T14:03:53;4.55;;;1.30;;
43345;SDS011;28937;51.160;4.146;2022-09-09T14:06:19;5.35;;;1.52;;
43345;SDS011;28937;51.160;4.146;2022-09-09T14:08:46;7.38;;;1.50;;
43345;SDS011;28937;51.160;4.146;2022-09-09T14:11:13;4.38;;;1.10;;
43345;SDS011;28937;51.160;4.146;2022-09-09T14:13:38;3.00;;;0.80;;
43345;SDS011;28937;51.160;4.146;2022-09-09T14:16:04;3.53;;;0.90;;
43345;SDS011;28937;51.160;4.146;2022-09-09T14:18:29;4.53;;;0.95;;
43345;SDS011;28937;51.160;4.146;2022-09-09T14:20:55;3.80;;;1.30;;
43345;SDS011;28937;51.160;4.146;2022-09-09T14:23:22;4.25;;;0.98;;
43345;SDS011;28937;51.160;4.146;2022-09-09T14:25:50;7.20;;;1.42;;
43345;SDS011;28937;51.160;4.146;2022-09-09T14:28:16;8.80;;;1.30;;
43345;SDS011;28937;51.160;4.146;2022-09-09T14:30:42;7.43;;;1.83;;
43345;SDS011;28937;51.160;4.146;2022-09-09T14:33:13;12.13;;;3.70;;
43345;SDS011;28937;51.160;4.146;2022-09-09T14:35:40;7.38;;;3.15;;
43345;SDS011;28937;51.160;4.146;2022-09-09T14:38:06;7.75;;;2.33;;
43345;SDS011;28937;51.160;4.146;2022-09-09T14:40:34;4.78;;;1.67;;
43345;SDS011;28937;51.160;4.146;2022-09-09T14:43:01;4.60;;;1.42;;
43345;SDS011;28937;51.160;4.146;2022-09-09T14:45:27;5.40;;;1.38;;
43345;SDS011;28937;51.160;4.146;2022-09-09T14:47:53;5.47;;;1.60;;
43345;SDS011;28937;51.160;4.146;2022-09-09T14:50:20;3.95;;;0.90;;
43345;SDS011;28937;51.160;4.146;2022-09-09T14:52:46;3.38;;;0.52;;
43345;SDS011;28937;51.160;4.146;2022-09-09T14:55:12;2.22;;;0.50;;
43345;SDS011;28937;51.160;4.146;2022-09-09T14:57:38;1.95;;;1.10;;
43345;SDS011;28937;51.160;4.146;2022-09-09T15:00:05;5.93;;;1.65;;
43345;SDS011;28937;51.160;4.146;2022-09-09T15:02:33;3.33;;;1.20;;
43345;SDS011;28937;51.160;4.146;2022-09-09T15:04:58;3.92;;;1.10;;
43345;SDS011;28937;51.160;4.146;2022-09-09T15:07:24;4.72;;;1.27;;
43345;SDS011;28937;51.160;4.146;2022-09-09T15:09:51;6.13;;;1.30;;
43345;SDS011;28937;51.160;4.146;2022-09-09T15:12:17;6.10;;;1.60;;
43345;SDS011;28937;51.160;4.146;2022-09-09T15:14:44;5.40;;;1.60;;
43345;SDS011;28937;51.160;4.146;2022-09-09T15:17:10;3.42;;;1.63;;
43345;SDS011;28937;51.160;4.146;2022-09-09T15:19:37;5.15;;;1.60;;
43345;SDS011;28937;51.160;4.146;2022-09-09T15:22:03;3.03;;;1.30;;
43345;SDS011;28937;51.160;4.146;2022-09-09T15:24:31;5.10;;;1.58;;
43345;SDS011;28937;51.160;4.146;2022-09-09T15:26:57;3.88;;;0.77;;
43345;SDS011;28937;51.160;4.146;2022-09-09T15:29:23;4.10;;;0.77;;
43345;SDS011;28937;51.160;4.146;2022-09-09T15:31:49;3.22;;;0.70;;
43345;SDS011;28937;51.160;4.146;2022-09-09T15:34:15;3.22;;;1.08;;
43345;SDS011;28937;51.160;4.146;2022-09-09T15:36:42;3.85;;;1.05;;
43345;SDS011;28937;51.160;4.146;2022-09-09T15:39:10;1.70;;;0.65;;
43345;SDS011;28937;51.160;4.146;2022-09-09T15:41:40;6.03;;;0.98;;
43345;SDS011;28937;51.160;4.146;2022-09-09T15:44:06;2.92;;;1.13;;
43345;SDS011;28937;51.160;4.146;2022-09-09T15:46:36;5.57;;;1.10;;
43345;SDS011;28937;51.160;4.146;2022-09-09T15:51:28;3.67;;;1.10;;
43345;SDS011;28937;51.160;4.146;2022-09-09T15:53:56;5.35;;;1.48;;
43345;SDS011;28937;51.160;4.146;2022-09-09T15:56:23;3.15;;;0.98;;
43345;SDS011;28937;51.160;4.146;2022-09-09T15:58:50;10.88;;;1.25;;
43345;SDS011;28937;51.160;4.146;2022-09-09T16:01:17;4.63;;;1.10;;
43345;SDS011;28937;51.160;4.146;2022-09-09T16:03:44;4.95;;;1.33;;
43345;SDS011;28937;51.160;4.146;2022-09-09T16:06:15;10.73;;;1.83;;
43345;SDS011;28937;51.160;4.146;2022-09-09T16:08:47;5.63;;;1.52;;
43345;SDS011;28937;51.160;4.146;2022-09-09T16:11:25;5.20;;;1.63;;
43345;SDS011;28937;51.160;4.146;2022-09-09T16:13:56;5.70;;;2.30;;
43345;SDS011;28937;51.160;4.146;2022-09-09T16:16:23;3.67;;;2.00;;
43345;SDS011;28937;51.160;4.146;2022-09-09T16:18:51;5.15;;;2.40;;
43345;SDS011;28937;51.160;4.146;2022-09-09T16:21:25;8.57;;;2.75;;
43345;SDS011;28937;51.160;4.146;2022-09-09T16:23:51;4.90;;;2.45;;
43345;SDS011;28937;51.160;4.146;2022-09-09T16:26:18;6.80;;;2.70;;
43345;SDS011;28937;51.160;4.146;2022-09-09T16:28:44;3.60;;;2.25;;
43345;SDS011;28937;51.160;4.146;2022-09-09T16:31:22;6.05;;;2.70;;
43345;SDS011;28937;51.160;4.146;2022-09-09T16:33:48;8.40;;;2.42;;
43345;SDS011;28937;51.160;4.146;2022-09-09T16:36:16;6.13;;;1.95;;
43345;SDS011;28937;51.160;4.146;2022-09-09T16:38:46;5.25;;;1.88;;
43345;SDS011;28937;51.160;4.146;2022-09-09T16:41:12;4.90;;;1.60;;
43345;SDS011;28937;51.160;4.146;2022-09-09T16:43:40;3.25;;;1.33;;
43345;SDS011;28937;51.160;4.146;2022-09-09T16:46:24;3.05;;;1.35;;
43345;SDS011;28937;51.160;4.146;2022-09-09T16:48:50;5.10;;;1.27;;
43345;SDS011;28937;51.160;4.146;2022-09-09T16:51:20;4.43;;;1.10;;
43345;SDS011;28937;51.160;4.146;2022-09-09T16:53:53;3.33;;;1.10;;
43345;SDS011;28937;51.160;4.146;2022-09-09T16:56:21;2.88;;;1.00;;
43345;SDS011;28937;51.160;4.146;2022-09-09T16:58:53;3.63;;;1.20;;
43345;SDS011;28937;51.160;4.146;2022-09-09T17:01:28;4.53;;;1.05;;
43345;SDS011;28937;51.160;4.146;2022-09-09T17:03:56;3.30;;;1.13;;
43345;SDS011;28937;51.160;4.146;2022-09-09T17:06:23;3.22;;;1.15;;
43345;SDS011;28937;51.160;4.146;2022-09-09T17:08:57;3.65;;;1.02;;
43345;SDS011;28937;51.160;4.146;2022-09-09T17:11:24;2.75;;;0.70;;
43345;SDS011;28937;51.160;4.146;2022-09-09T17:13:51;5.45;;;1.27;;
43345;SDS011;28937;51.160;4.146;2022-09-09T17:16:18;2.58;;;1.30;;
43345;SDS011;28937;51.160;4.146;2022-09-09T17:18:46;2.88;;;0.85;;
43345;SDS011;28937;51.160;4.146;2022-09-09T17:21:13;4.28;;;1.20;;
43345;SDS011;28937;51.160;4.146;2022-09-09T17:23:41;3.53;;;1.25;;
43345;SDS011;28937;51.160;4.146;2022-09-09T17:26:07;4.05;;;1.30;;